sensor_id;sensor_type;location;lat;lon;timestamp;P1;durP1;ratioP1;P2;durP2;ratioP2
18316;SDS011;9284;52.298;21.164;2022-09-16T03:17:39;6.15;;;3.05;;
18316;SDS011;9284;52.298;21.164;2022-09-16T03:20:20;4.20;;;2.75;;
18316;SDS011;9284;52.298;21.164;2022-09-16T03:22:57;7.63;;;2.58;;
18316;SDS011;9284;52.298;21.164;2022-09-16T03:25:36;5.32;;;3.50;;
18316;SDS011;9284;52.298;21.164;2022-09-16T03:28:14;6.15;;;3.38;;
18316;SDS011;9284;52.298;21.164;2022-09-16T03:30:47;7.30;;;3.28;;
18316;SDS011;9284;52.298;21.164;2022-09-16T03:33:23;6.28;;;3.28;;
18316;SDS011;9284;52.298;21.164;2022-09-16T03:35:56;6.13;;;3.80;;
18316;SDS011;9284;52.298;21.164;2022-09-16T03:38:28;6.97;;;3.42;;
18316;SDS011;9284;52.298;21.164;2022-09-16T03:40:58;7.40;;;3.05;;
18316;SDS011;9284;52.298;21.164;2022-09-16T03:43:29;7.20;;;3.72;;
18316;SDS011;9284;52.298;21.164;2022-09-16T03:45:57;8.13;;;3.58;;
18316;SDS011;9284;52.298;21.164;2022-09-16T03:48:27;6.70;;;3.70;;
18316;SDS011;9284;52.298;21.164;2022-09-16T03:50:55;6.03;;;3.50;;
18316;SDS011;9284;52.298;21.164;2022-09-16T03:53:24;5.93;;;3.60;;
18316;SDS011;9284;52.298;21.164;2022-09-16T03:55:52;7.88;;;4.55;;
18316;SDS011;9284;52.298;21.164;2022-09-16T03:58:20;8.35;;;3.83;;
18316;SDS011;9284;52.298;21.164;2022-09-16T04:00:48;8.57;;;3.63;;
18316;SDS011;9284;52.298;21.164;2022-09-16T04:03:17;8.60;;;3.72;;
18316;SDS011;9284;52.298;21.164;2022-09-16T04:05:47;8.10;;;4.32;;
18316;SDS011;9284;52.298;21.164;2022-09-16T04:08:20;10.13;;;4.22;;
18316;SDS011;9284;52.298;21.164;2022-09-16T04:10:55;9.48;;;3.95;;
18316;SDS011;9284;52.298;21.164;2022-09-16T04:13:24;12.50;;;4.55;;
18316;SDS011;9284;52.298;21.164;2022-09-16T04:15:52;5.30;;;4.28;;
18316;SDS011;9284;52.298;21.164;2022-09-16T04:18:21;8.88;;;4.10;;
18316;SDS011;9284;52.298;21.164;2022-09-16T04:20:54;7.03;;;3.88;;
18316;SDS011;9284;52.298;21.164;2022-09-16T04:23:23;6.93;;;3.90;;
18316;SDS011;9284;52.298;21.164;2022-09-16T04:25:54;8.73;;;4.18;;
18316;SDS011;9284;52.298;21.164;2022-09-16T04:28:23;9.40;;;4.07;;
18316;SDS011;9284;52.298;21.164;2022-09-16T04:30:51;6.43;;;3.70;;
18316;SDS011;9284;52.298;21.164;2022-09-16T04:33:20;10.52;;;4.50;;
18316;SDS011;9284;52.298;21.164;2022-09-16T04:35:48;8.48;;;4.07;;
18316;SDS011;9284;52.298;21.164;2022-09-16T04:38:18;9.55;;;3.92;;
18316;SDS011;9284;52.298;21.164;2022-09-16T04:40:46;6.88;;;3.85;;
18316;SDS011;9284;52.298;21.164;2022-09-16T04:43:14;10.25;;;4.00;;
18316;SDS011;9284;52.298;21.164;2022-09-16T04:45:42;9.18;;;4.25;;
18316;SDS011;9284;52.298;21.164;2022-09-16T04:48:10;9.48;;;4.15;;
18316;SDS011;9284;52.298;21.164;2022-09-16T04:50:38;9.40;;;4.43;;
18316;SDS011;9284;52.298;21.164;2022-09-16T04:53:07;9.45;;;4.45;;
18316;SDS011;9284;52.298;21.164;2022-09-16T04:55:37;9.25;;;4.63;;
18316;SDS011;9284;52.298;21.164;2022-09-16T04:58:05;7.80;;;4.10;;
18316;SDS011;9284;52.298;21.164;2022-09-16T05:00:33;6.85;;;4.07;;
18316;SDS011;9284;52.298;21.164;2022-09-16T05:03:01;8.32;;;4.05;;
18316;SDS011;9284;52.298;21.164;2022-09-16T05:05:30;7.03;;;4.00;;
18316;SDS011;9284;52.298;21.164;2022-09-16T05:07:58;10.07;;;4.40;;
18316;SDS011;9284;52.298;21.164;2022-09-16T05:10:26;8.88;;;4.60;;
18316;SDS011;9284;52.298;21.164;2022-09-16T05:12:55;6.68;;;4.00;;
18316;SDS011;9284;52.298;21.164;2022-09-16T05:15:24;5.28;;;4.22;;
18316;SDS011;9284;52.298;21.164;2022-09-16T05:17:52;8.70;;;4.32;;
18316;SDS011;9284;52.298;21.164;2022-09-16T05:20:20;10.18;;;4.93;;
18316;SDS011;9284;52.298;21.164;2022-09-16T05:22:48;7.13;;;4.85;;
18316;SDS011;9284;52.298;21.164;2022-09-16T05:25:17;6.38;;;4.43;;
18316;SDS011;9284;52.298;21.164;2022-09-16T05:27:45;8.80;;;4.38;;
18316;SDS011;9284;52.298;21.164;2022-09-16T05:30:15;9.40;;;4.28;;
18316;SDS011;9284;52.298;21.164;2022-09-16T05:32:51;5.57;;;4.18;;
18316;SDS011;9284;52.298;21.164;2022-09-16T05:35:20;8.52;;;3.95;;
18316;SDS011;9284;52.298;21.164;2022-09-16T05:37:48;8.57;;;3.75;;
18316;SDS011;9284;52.298;21.164;2022-09-16T05:40:16;6.15;;;3.50;;
18316;SDS011;9284;52.298;21.164;2022-09-16T05:42:47;10.10;;;3.50;;
18316;SDS011;9284;52.298;21.164;2022-09-16T05:45:16;4.70;;;3.42;;
18316;SDS011;9284;52.298;21.164;2022-09-16T05:47:52;4.95;;;3.38;;
18316;SDS011;9284;52.298;21.164;2022-09-16T05:50:20;6.55;;;3.50;;
18316;SDS011;9284;52.298;21.164;2022-09-16T05:52:49;7.50;;;3.33;;
18316;SDS011;9284;52.298;21.164;2022-09-16T05:55:17;8.45;;;4.00;;
18316;SDS011;9284;52.298;21.164;2022-09-16T05:57:45;6.45;;;3.22;;
18316;SDS011;9284;52.298;21.164;2022-09-16T06:00:14;6.13;;;3.28;;
18316;SDS011;9284;52.298;21.164;2022-09-16T06:02:44;6.63;;;3.20;;
18316;SDS011;9284;52.298;21.164;2022-09-16T06:05:14;7.75;;;3.28;;
18316;SDS011;9284;52.298;21.164;2022-09-16T06:07:43;7.40;;;2.88;;
18316;SDS011;9284;52.298;21.164;2022-09-16T06:10:11;4.97;;;3.00;;
18316;SDS011;9284;52.298;21.164;2022-09-16T06:12:39;5.28;;;2.72;;
18316;SDS011;9284;52.298;21.164;2022-09-16T06:15:07;3.38;;;2.78;;
18316;SDS011;9284;52.298;21.164;2022-09-16T06:17:36;3.58;;;2.40;;
18316;SDS011;9284;52.298;21.164;2022-09-16T06:20:06;5.93;;;2.90;;
18316;SDS011;9284;52.298;21.164;2022-09-16T06:22:39;3.80;;;2.35;;
18316;SDS011;9284;52.298;21.164;2022-09-16T06:25:07;6.90;;;2.85;;
18316;SDS011;9284;52.298;21.164;2022-09-16T06:27:35;5.22;;;2.70;;
18316;SDS011;9284;52.298;21.164;2022-09-16T06:30:04;5.38;;;2.58;;
18316;SDS011;9284;52.298;21.164;2022-09-16T06:32:33;2.95;;;2.20;;
18316;SDS011;9284;52.298;21.164;2022-09-16T06:35:01;6.65;;;3.28;;
18316;SDS011;9284;52.298;21.164;2022-09-16T06:37:31;5.47;;;2.03;;
18316;SDS011;9284;52.298;21.164;2022-09-16T06:40:00;6.05;;;2.13;;
18316;SDS011;9284;52.298;21.164;2022-09-16T06:42:29;6.03;;;2.20;;
18316;SDS011;9284;52.298;21.164;2022-09-16T06:45:02;3.83;;;2.03;;
18316;SDS011;9284;52.298;21.164;2022-09-16T06:47:30;4.82;;;2.03;;
18316;SDS011;9284;52.298;21.164;2022-09-16T06:49:59;7.75;;;2.13;;
18316;SDS011;9284;52.298;21.164;2022-09-16T06:52:27;7.20;;;2.30;;
18316;SDS011;9284;52.298;21.164;2022-09-16T06:54:57;4.65;;;1.98;;
18316;SDS011;9284;52.298;21.164;2022-09-16T06:57:25;4.40;;;2.72;;
18316;SDS011;9284;52.298;21.164;2022-09-16T06:59:54;6.00;;;2.17;;
18316;SDS011;9284;52.298;21.164;2022-09-16T07:02:22;6.72;;;2.00;;
18316;SDS011;9284;52.298;21.164;2022-09-16T07:04:52;3.72;;;1.80;;
18316;SDS011;9284;52.298;21.164;2022-09-16T07:07:20;4.13;;;1.70;;
18316;SDS011;9284;52.298;21.164;2022-09-16T07:09:52;5.00;;;1.80;;
18316;SDS011;9284;52.298;21.164;2022-09-16T07:12:29;5.97;;;2.22;;
18316;SDS011;9284;52.298;21.164;2022-09-16T07:15:04;4.65;;;1.83;;
18316;SDS011;9284;52.298;21.164;2022-09-16T07:17:37;5.25;;;2.00;;
18316;SDS011;9284;52.298;21.164;2022-09-16T07:20:05;5.15;;;2.08;;
18316;SDS011;9284;52.298;21.164;2022-09-16T07:22:36;5.60;;;2.55;;
18316;SDS011;9284;52.298;21.164;2022-09-16T07:25:06;3.70;;;1.80;;
18316;SDS011;9284;52.298;21.164;2022-09-16T07:27:36;3.35;;;1.67;;
18316;SDS011;9284;52.298;21.164;2022-09-16T07:30:08;8.82;;;1.70;;
18316;SDS011;9284;52.298;21.164;2022-09-16T07:32:39;4.32;;;1.33;;
18316;SDS011;9284;52.298;21.164;2022-09-16T07:35:08;7.60;;;1.63;;
18316;SDS011;9284;52.298;21.164;2022-09-16T07:37:40;5.40;;;1.40;;
18316;SDS011;9284;52.298;21.164;2022-09-16T07:40:10;6.93;;;1.38;;
18316;SDS011;9284;52.298;21.164;2022-09-16T07:42:45;4.75;;;1.50;;
18316;SDS011;9284;52.298;21.164;2022-09-16T07:45:19;6.50;;;1.38;;
18316;SDS011;9284;52.298;21.164;2022-09-16T07:47:47;4.53;;;1.52;;
18316;SDS011;9284;52.298;21.164;2022-09-16T07:50:16;3.28;;;1.17;;
18316;SDS011;9284;52.298;21.164;2022-09-16T07:52:45;3.53;;;1.27;;
18316;SDS011;9284;52.298;21.164;2022-09-16T07:55:13;6.55;;;1.40;;
18316;SDS011;9284;52.298;21.164;2022-09-16T07:57:44;6.53;;;1.40;;
18316;SDS011;9284;52.298;21.164;2022-09-16T08:00:14;5.97;;;1.48;;
18316;SDS011;9284;52.298;21.164;2022-09-16T08:02:42;4.68;;;1.70;;
18316;SDS011;9284;52.298;21.164;2022-09-16T08:05:11;5.65;;;1.50;;
18316;SDS011;9284;52.298;21.164;2022-09-16T08:07:41;8.27;;;1.75;;
18316;SDS011;9284;52.298;21.164;2022-09-16T08:10:09;8.27;;;1.55;;
18316;SDS011;9284;52.298;21.164;2022-09-16T08:12:37;3.85;;;1.10;;
18316;SDS011;9284;52.298;21.164;2022-09-16T08:15:08;4.35;;;1.60;;
18316;SDS011;9284;52.298;21.164;2022-09-16T08:17:37;9.10;;;1.25;;
18316;SDS011;9284;52.298;21.164;2022-09-16T08:20:05;4.32;;;1.35;;
18316;SDS011;9284;52.298;21.164;2022-09-16T08:22:34;5.65;;;1.10;;
18316;SDS011;9284;52.298;21.164;2022-09-16T08:25:04;6.30;;;1.90;;
18316;SDS011;9284;52.298;21.164;2022-09-16T08:27:34;5.55;;;1.20;;
18316;SDS011;9284;52.298;21.164;2022-09-16T08:30:03;8.50;;;1.30;;
18316;SDS011;9284;52.298;21.164;2022-09-16T08:32:34;3.53;;;1.30;;
18316;SDS011;9284;52.298;21.164;2022-09-16T08:35:02;6.38;;;1.40;;
18316;SDS011;9284;52.298;21.164;2022-09-16T08:37:33;3.75;;;1.23;;
18316;SDS011;9284;52.298;21.164;2022-09-16T08:40:04;6.50;;;1.20;;
18316;SDS011;9284;52.298;21.164;2022-09-16T08:42:40;4.55;;;1.42;;
18316;SDS011;9284;52.298;21.164;2022-09-16T08:45:18;6.55;;;1.77;;
18316;SDS011;9284;52.298;21.164;2022-09-16T08:47:56;9.35;;;1.42;;
18316;SDS011;9284;52.298;21.164;2022-09-16T08:50:35;5.75;;;1.10;;
18316;SDS011;9284;52.298;21.164;2022-09-16T08:53:09;3.33;;;1.08;;
18316;SDS011;9284;52.298;21.164;2022-09-16T08:55:46;5.57;;;1.45;;
18316;SDS011;9284;52.298;21.164;2022-09-16T08:58:17;4.43;;;1.15;;
18316;SDS011;9284;52.298;21.164;2022-09-16T09:00:51;4.68;;;1.35;;
18316;SDS011;9284;52.298;21.164;2022-09-16T09:03:27;4.20;;;1.20;;
18316;SDS011;9284;52.298;21.164;2022-09-16T09:06:02;6.40;;;1.70;;
18316;SDS011;9284;52.298;21.164;2022-09-16T09:08:39;5.53;;;1.17;;
18316;SDS011;9284;52.298;21.164;2022-09-16T09:11:14;6.00;;;1.33;;
18316;SDS011;9284;52.298;21.164;2022-09-16T09:13:54;4.18;;;1.50;;
18316;SDS011;9284;52.298;21.164;2022-09-16T09:16:36;9.98;;;1.13;;
18316;SDS011;9284;52.298;21.164;2022-09-16T09:19:15;8.50;;;1.30;;
18316;SDS011;9284;52.298;21.164;2022-09-16T09:21:57;8.13;;;2.33;;
18316;SDS011;9284;52.298;21.164;2022-09-16T09:24:40;12.50;;;1.40;;
18316;SDS011;9284;52.298;21.164;2022-09-16T09:27:23;20.23;;;2.70;;
18316;SDS011;9284;52.298;21.164;2022-09-16T09:29:58;4.78;;;1.33;;
18316;SDS011;9284;52.298;21.164;2022-09-16T09:32:45;26.20;;;3.28;;
18316;SDS011;9284;52.298;21.164;2022-09-16T09:35:31;3.47;;;1.10;;
18316;SDS011;9284;52.298;21.164;2022-09-16T09:38:26;16.50;;;1.80;;
18316;SDS011;9284;52.298;21.164;2022-09-16T09:41:13;4.40;;;1.23;;
18316;SDS011;9284;52.298;21.164;2022-09-16T09:43:47;5.20;;;1.33;;
18316;SDS011;9284;52.298;21.164;2022-09-16T09:46:21;5.30;;;1.23;;
18316;SDS011;9284;52.298;21.164;2022-09-16T09:48:54;10.43;;;1.35;;
18316;SDS011;9284;52.298;21.164;2022-09-16T09:51:29;5.03;;;1.30;;
18316;SDS011;9284;52.298;21.164;2022-09-16T09:54:00;4.13;;;1.25;;
18316;SDS011;9284;52.298;21.164;2022-09-16T09:56:32;5.00;;;1.10;;
18316;SDS011;9284;52.298;21.164;2022-09-16T09:59:07;5.47;;;1.25;;
18316;SDS011;9284;52.298;21.164;2022-09-16T10:01:51;2.72;;;1.00;;
18316;SDS011;9284;52.298;21.164;2022-09-16T10:04:23;4.30;;;1.02;;
18316;SDS011;9284;52.298;21.164;2022-09-16T10:06:53;5.82;;;1.38;;
18316;SDS011;9284;52.298;21.164;2022-09-16T10:09:23;4.88;;;1.10;;
18316;SDS011;9284;52.298;21.164;2022-09-16T10:11:59;2.97;;;1.10;;
18316;SDS011;9284;52.298;21.164;2022-09-16T10:14:28;7.57;;;1.40;;
18316;SDS011;9284;52.298;21.164;2022-09-16T10:16:59;6.15;;;1.13;;
18316;SDS011;9284;52.298;21.164;2022-09-16T10:19:30;2.92;;;1.00;;
18316;SDS011;9284;52.298;21.164;2022-09-16T10:22:09;3.67;;;1.30;;
18316;SDS011;9284;52.298;21.164;2022-09-16T10:24:39;4.97;;;1.00;;
18316;SDS011;9284;52.298;21.164;2022-09-16T10:27:17;4.28;;;1.17;;
18316;SDS011;9284;52.298;21.164;2022-09-16T10:30:01;6.15;;;1.10;;
18316;SDS011;9284;52.298;21.164;2022-09-16T10:32:36;3.85;;;1.20;;
18316;SDS011;9284;52.298;21.164;2022-09-16T10:35:14;6.95;;;1.60;;
18316;SDS011;9284;52.298;21.164;2022-09-16T10:38:04;6.95;;;1.45;;
18316;SDS011;9284;52.298;21.164;2022-09-16T10:40:49;3.20;;;1.05;;
18316;SDS011;9284;52.298;21.164;2022-09-16T10:43:18;5.88;;;1.20;;
18316;SDS011;9284;52.298;21.164;2022-09-16T10:45:51;3.10;;;1.05;;
18316;SDS011;9284;52.298;21.164;2022-09-16T10:48:22;5.47;;;1.17;;
18316;SDS011;9284;52.298;21.164;2022-09-16T10:50:54;5.07;;;0.90;;
18316;SDS011;9284;52.298;21.164;2022-09-16T10:53:28;3.70;;;0.93;;
18316;SDS011;9284;52.298;21.164;2022-09-16T10:56:14;3.38;;;1.20;;
18316;SDS011;9284;52.298;21.164;2022-09-16T10:58:46;7.63;;;1.30;;
18316;SDS011;9284;52.298;21.164;2022-09-16T11:01:25;3.20;;;1.05;;
18316;SDS011;9284;52.298;21.164;2022-09-16T11:04:10;4.10;;;0.88;;
18316;SDS011;9284;52.298;21.164;2022-09-16T11:07:01;5.47;;;1.30;;
18316;SDS011;9284;52.298;21.164;2022-09-16T11:09:47;7.03;;;1.30;;
18316;SDS011;9284;52.298;21.164;2022-09-16T11:15:30;4.65;;;1.05;;
18316;SDS011;9284;52.298;21.164;2022-09-16T11:18:11;2.28;;;0.80;;
18316;SDS011;9284;52.298;21.164;2022-09-16T11:20:55;2.38;;;0.85;;
18316;SDS011;9284;52.298;21.164;2022-09-16T11:23:48;5.22;;;1.30;;
18316;SDS011;9284;52.298;21.164;2022-09-16T11:26:32;3.67;;;0.90;;
18316;SDS011;9284;52.298;21.164;2022-09-16T11:29:22;3.05;;;1.00;;
18316;SDS011;9284;52.298;21.164;2022-09-16T11:32:12;4.90;;;1.20;;
18316;SDS011;9284;52.298;21.164;2022-09-16T11:34:54;4.30;;;0.90;;
18316;SDS011;9284;52.298;21.164;2022-09-16T11:37:31;2.90;;;0.95;;
18316;SDS011;9284;52.298;21.164;2022-09-16T11:40:08;1.92;;;0.90;;
18316;SDS011;9284;52.298;21.164;2022-09-16T11:42:47;4.38;;;1.00;;
18316;SDS011;9284;52.298;21.164;2022-09-16T11:45:29;5.80;;;1.13;;
18316;SDS011;9284;52.298;21.164;2022-09-16T11:48:14;1.33;;;0.88;;
18316;SDS011;9284;52.298;21.164;2022-09-16T11:50:54;2.97;;;0.68;;
18316;SDS011;9284;52.298;21.164;2022-09-16T11:53:38;4.45;;;0.80;;
18316;SDS011;9284;52.298;21.164;2022-09-16T11:56:33;7.82;;;0.98;;
18316;SDS011;9284;52.298;21.164;2022-09-16T11:59:11;5.82;;;1.05;;
18316;SDS011;9284;52.298;21.164;2022-09-16T12:01:42;3.25;;;0.77;;
18316;SDS011;9284;52.298;21.164;2022-09-16T12:04:15;2.13;;;0.77;;
18316;SDS011;9284;52.298;21.164;2022-09-16T12:06:48;5.15;;;0.90;;
18316;SDS011;9284;52.298;21.164;2022-09-16T12:09:23;3.92;;;1.00;;
18316;SDS011;9284;52.298;21.164;2022-09-16T12:12:00;3.33;;;1.13;;
18316;SDS011;9284;52.298;21.164;2022-09-16T12:14:36;3.42;;;0.88;;
18316;SDS011;9284;52.298;21.164;2022-09-16T12:17:10;2.90;;;0.80;;
18316;SDS011;9284;52.298;21.164;2022-09-16T12:19:45;2.13;;;1.02;;
18316;SDS011;9284;52.298;21.164;2022-09-16T12:22:18;6.85;;;1.42;;
18316;SDS011;9284;52.298;21.164;2022-09-16T12:24:53;4.75;;;1.30;;
18316;SDS011;9284;52.298;21.164;2022-09-16T12:27:30;2.47;;;0.93;;
18316;SDS011;9284;52.298;21.164;2022-09-16T12:30:07;3.33;;;1.10;;
18316;SDS011;9284;52.298;21.164;2022-09-16T12:32:44;2.35;;;0.88;;
18316;SDS011;9284;52.298;21.164;2022-09-16T12:35:19;1.52;;;0.77;;
18316;SDS011;9284;52.298;21.164;2022-09-16T12:37:53;2.45;;;1.05;;
18316;SDS011;9284;52.298;21.164;2022-09-16T12:40:23;4.38;;;0.90;;
18316;SDS011;9284;52.298;21.164;2022-09-16T12:46:02;3.35;;;0.82;;
18316;SDS011;9284;52.298;21.164;2022-09-16T12:51:54;5.88;;;1.20;;
18316;SDS011;9284;52.298;21.164;2022-09-16T12:54:51;1.95;;;0.95;;
18316;SDS011;9284;52.298;21.164;2022-09-16T12:57:40;7.82;;;1.30;;
18316;SDS011;9284;52.298;21.164;2022-09-16T13:00:18;5.72;;;1.15;;
18316;SDS011;9284;52.298;21.164;2022-09-16T13:02:50;5.70;;;1.20;;
18316;SDS011;9284;52.298;21.164;2022-09-16T13:05:22;2.97;;;1.00;;
18316;SDS011;9284;52.298;21.164;2022-09-16T13:07:59;4.38;;;1.10;;
18316;SDS011;9284;52.298;21.164;2022-09-16T13:10:31;6.07;;;1.17;;
18316;SDS011;9284;52.298;21.164;2022-09-16T13:13:25;2.88;;;1.00;;
18316;SDS011;9284;52.298;21.164;2022-09-16T13:15:59;4.35;;;1.10;;
18316;SDS011;9284;52.298;21.164;2022-09-16T13:18:38;3.97;;;0.90;;
18316;SDS011;9284;52.298;21.164;2022-09-16T13:21:21;4.57;;;1.00;;
18316;SDS011;9284;52.298;21.164;2022-09-16T13:23:56;2.58;;;1.20;;
18316;SDS011;9284;52.298;21.164;2022-09-16T13:26:52;2.35;;;0.85;;
18316;SDS011;9284;52.298;21.164;2022-09-16T13:29:30;5.00;;;1.13;;
18316;SDS011;9284;52.298;21.164;2022-09-16T13:32:25;5.20;;;1.35;;
18316;SDS011;9284;52.298;21.164;2022-09-16T13:35:04;3.13;;;0.90;;
18316;SDS011;9284;52.298;21.164;2022-09-16T13:37:48;2.90;;;0.90;;
18316;SDS011;9284;52.298;21.164;2022-09-16T13:40:19;2.05;;;0.68;;
18316;SDS011;9284;52.298;21.164;2022-09-16T13:42:51;6.32;;;1.08;;
18316;SDS011;9284;52.298;21.164;2022-09-16T13:45:32;3.78;;;1.20;;
18316;SDS011;9284;52.298;21.164;2022-09-16T13:48:04;2.42;;;0.90;;
18316;SDS011;9284;52.298;21.164;2022-09-16T13:50:40;1.92;;;0.60;;
18316;SDS011;9284;52.298;21.164;2022-09-16T13:53:10;9.52;;;1.02;;
18316;SDS011;9284;52.298;21.164;2022-09-16T13:55:49;2.00;;;0.90;;
18316;SDS011;9284;52.298;21.164;2022-09-16T13:58:18;1.95;;;1.00;;
18316;SDS011;9284;52.298;21.164;2022-09-16T14:00:59;3.83;;;1.20;;
18316;SDS011;9284;52.298;21.164;2022-09-16T14:03:35;3.85;;;0.90;;
18316;SDS011;9284;52.298;21.164;2022-09-16T14:06:33;3.67;;;0.90;;
18316;SDS011;9284;52.298;21.164;2022-09-16T14:09:16;5.97;;;0.93;;
18316;SDS011;9284;52.298;21.164;2022-09-16T14:11:56;2.47;;;1.20;;
18316;SDS011;9284;52.298;21.164;2022-09-16T14:14:31;4.97;;;0.98;;
18316;SDS011;9284;52.298;21.164;2022-09-16T14:17:14;3.90;;;1.20;;
18316;SDS011;9284;52.298;21.164;2022-09-16T14:19:46;4.65;;;1.23;;
18316;SDS011;9284;52.298;21.164;2022-09-16T14:22:19;4.32;;;1.20;;
18316;SDS011;9284;52.298;21.164;2022-09-16T14:24:48;12.43;;;1.20;;
18316;SDS011;9284;52.298;21.164;2022-09-16T14:27:38;4.53;;;0.90;;
18316;SDS011;9284;52.298;21.164;2022-09-16T14:30:15;4.60;;;0.90;;
18316;SDS011;9284;52.298;21.164;2022-09-16T14:32:44;4.05;;;1.17;;
18316;SDS011;9284;52.298;21.164;2022-09-16T14:35:15;3.90;;;0.93;;
18316;SDS011;9284;52.298;21.164;2022-09-16T14:37:49;15.27;;;1.08;;
18316;SDS011;9284;52.298;21.164;2022-09-16T14:40:20;1.58;;;0.80;;
18316;SDS011;9284;52.298;21.164;2022-09-16T14:42:52;8.32;;;1.30;;
18316;SDS011;9284;52.298;21.164;2022-09-16T14:45:23;2.28;;;0.80;;
18316;SDS011;9284;52.298;21.164;2022-09-16T14:47:51;2.80;;;0.90;;
18316;SDS011;9284;52.298;21.164;2022-09-16T14:50:22;3.28;;;1.20;;
18316;SDS011;9284;52.298;21.164;2022-09-16T14:52:55;2.83;;;0.95;;
18316;SDS011;9284;52.298;21.164;2022-09-16T14:55:26;4.70;;;1.45;;
18316;SDS011;9284;52.298;21.164;2022-09-16T14:57:56;1.90;;;0.88;;
18316;SDS011;9284;52.298;21.164;2022-09-16T15:00:26;8.02;;;0.90;;
18316;SDS011;9284;52.298;21.164;2022-09-16T15:02:59;2.65;;;0.80;;
18316;SDS011;9284;52.298;21.164;2022-09-16T15:05:33;2.72;;;1.15;;
18316;SDS011;9284;52.298;21.164;2022-09-16T15:08:12;2.72;;;0.77;;
18316;SDS011;9284;52.298;21.164;2022-09-16T15:10:44;3.90;;;1.00;;
18316;SDS011;9284;52.298;21.164;2022-09-16T15:13:18;3.35;;;1.00;;
18316;SDS011;9284;52.298;21.164;2022-09-16T15:15:49;1.92;;;0.88;;
18316;SDS011;9284;52.298;21.164;2022-09-16T15:18:22;2.35;;;1.00;;
18316;SDS011;9284;52.298;21.164;2022-09-16T15:20:58;2.92;;;1.33;;
18316;SDS011;9284;52.298;21.164;2022-09-16T15:23:34;4.82;;;1.15;;
18316;SDS011;9284;52.298;21.164;2022-09-16T15:26:09;1.45;;;0.88;;
18316;SDS011;9284;52.298;21.164;2022-09-16T15:28:50;1.15;;;0.90;;
18316;SDS011;9284;52.298;21.164;2022-09-16T15:31:33;2.22;;;1.00;;
18316;SDS011;9284;52.298;21.164;2022-09-16T15:34:04;3.67;;;1.13;;
18316;SDS011;9284;52.298;21.164;2022-09-16T15:36:51;4.80;;;1.30;;
18316;SDS011;9284;52.298;21.164;2022-09-16T15:39:22;3.08;;;1.05;;
18316;SDS011;9284;52.298;21.164;2022-09-16T15:42:01;2.30;;;0.98;;
18316;SDS011;9284;52.298;21.164;2022-09-16T15:44:42;2.20;;;1.00;;
18316;SDS011;9284;52.298;21.164;2022-09-16T15:47:16;3.40;;;1.02;;
18316;SDS011;9284;52.298;21.164;2022-09-16T15:49:46;6.72;;;0.95;;
18316;SDS011;9284;52.298;21.164;2022-09-16T15:52:17;1.45;;;1.02;;
18316;SDS011;9284;52.298;21.164;2022-09-16T15:54:47;5.32;;;1.13;;
18316;SDS011;9284;52.298;21.164;2022-09-16T15:57:20;1.85;;;1.08;;
18316;SDS011;9284;52.298;21.164;2022-09-16T16:00:00;4.45;;;1.48;;
18316;SDS011;9284;52.298;21.164;2022-09-16T16:02:40;4.68;;;1.63;;
18316;SDS011;9284;52.298;21.164;2022-09-16T16:05:16;8.82;;;3.50;;
18316;SDS011;9284;52.298;21.164;2022-09-16T16:07:47;4.07;;;2.20;;
18316;SDS011;9284;52.298;21.164;2022-09-16T16:10:19;3.63;;;1.40;;
18316;SDS011;9284;52.298;21.164;2022-09-16T16:12:49;2.03;;;1.00;;
18316;SDS011;9284;52.298;21.164;2022-09-16T16:15:20;3.70;;;1.40;;
18316;SDS011;9284;52.298;21.164;2022-09-16T16:17:51;5.90;;;1.50;;
18316;SDS011;9284;52.298;21.164;2022-09-16T16:20:21;2.22;;;1.27;;
18316;SDS011;9284;52.298;21.164;2022-09-16T16:22:50;2.08;;;1.17;;
18316;SDS011;9284;52.298;21.164;2022-09-16T16:25:20;5.68;;;1.33;;
18316;SDS011;9284;52.298;21.164;2022-09-16T16:27:50;2.47;;;1.17;;
18316;SDS011;9284;52.298;21.164;2022-09-16T16:30:19;4.57;;;1.50;;
18316;SDS011;9284;52.298;21.164;2022-09-16T16:32:49;4.47;;;1.15;;
18316;SDS011;9284;52.298;21.164;2022-09-16T16:35:18;3.05;;;1.13;;
18316;SDS011;9284;52.298;21.164;2022-09-16T16:37:46;3.08;;;1.30;;
18316;SDS011;9284;52.298;21.164;2022-09-16T16:40:17;3.40;;;1.40;;
18316;SDS011;9284;52.298;21.164;2022-09-16T16:42:47;1.83;;;1.20;;
18316;SDS011;9284;52.298;21.164;2022-09-16T16:45:15;2.15;;;1.25;;
18316;SDS011;9284;52.298;21.164;2022-09-16T16:47:43;3.15;;;1.10;;
18316;SDS011;9284;52.298;21.164;2022-09-16T16:50:13;1.92;;;1.02;;
18316;SDS011;9284;52.298;21.164;2022-09-16T16:52:42;4.40;;;1.10;;
18316;SDS011;9284;52.298;21.164;2022-09-16T16:55:10;3.28;;;1.23;;
18316;SDS011;9284;52.298;21.164;2022-09-16T16:57:38;6.63;;;1.48;;
18316;SDS011;9284;52.298;21.164;2022-09-16T17:00:09;5.25;;;1.90;;
18316;SDS011;9284;52.298;21.164;2022-09-16T17:02:40;8.13;;;3.70;;
18316;SDS011;9284;52.298;21.164;2022-09-16T17:05:11;8.77;;;3.60;;
18316;SDS011;9284;52.298;21.164;2022-09-16T17:07:40;7.47;;;3.60;;
18316;SDS011;9284;52.298;21.164;2022-09-16T17:10:08;11.05;;;3.95;;
18316;SDS011;9284;52.298;21.164;2022-09-16T17:12:36;5.95;;;3.53;;
18316;SDS011;9284;52.298;21.164;2022-09-16T17:15:07;6.32;;;3.13;;
18316;SDS011;9284;52.298;21.164;2022-09-16T17:17:51;6.70;;;2.60;;
18316;SDS011;9284;52.298;21.164;2022-09-16T17:20:32;5.95;;;2.22;;
18316;SDS011;9284;52.298;21.164;2022-09-16T17:23:04;4.95;;;1.75;;
18316;SDS011;9284;52.298;21.164;2022-09-16T17:25:40;3.05;;;1.48;;
18316;SDS011;9284;52.298;21.164;2022-09-16T17:28:15;1.95;;;1.58;;
18316;SDS011;9284;52.298;21.164;2022-09-16T17:30:50;7.90;;;1.90;;
18316;SDS011;9284;52.298;21.164;2022-09-16T17:33:22;5.50;;;2.00;;
18316;SDS011;9284;52.298;21.164;2022-09-16T17:35:59;2.38;;;1.40;;
18316;SDS011;9284;52.298;21.164;2022-09-16T17:38:31;6.68;;;2.00;;
18316;SDS011;9284;52.298;21.164;2022-09-16T17:41:02;4.07;;;1.63;;
18316;SDS011;9284;52.298;21.164;2022-09-16T17:43:34;5.40;;;1.95;;
18316;SDS011;9284;52.298;21.164;2022-09-16T17:46:18;6.18;;;1.88;;
18316;SDS011;9284;52.298;21.164;2022-09-16T17:48:57;3.35;;;1.45;;
18316;SDS011;9284;52.298;21.164;2022-09-16T17:51:27;2.08;;;1.60;;
18316;SDS011;9284;52.298;21.164;2022-09-16T17:53:58;6.95;;;3.15;;
18316;SDS011;9284;52.298;21.164;2022-09-16T17:56:31;3.33;;;2.40;;
18316;SDS011;9284;52.298;21.164;2022-09-16T17:59:00;3.03;;;2.20;;
18316;SDS011;9284;52.298;21.164;2022-09-16T18:01:31;4.60;;;2.25;;
18316;SDS011;9284;52.298;21.164;2022-09-16T18:04:02;8.15;;;2.40;;
18316;SDS011;9284;52.298;21.164;2022-09-16T18:06:31;7.13;;;2.50;;
18316;SDS011;9284;52.298;21.164;2022-09-16T18:09:02;2.22;;;1.92;;
18316;SDS011;9284;52.298;21.164;2022-09-16T18:11:33;4.65;;;2.30;;
18316;SDS011;9284;52.298;21.164;2022-09-16T18:14:02;7.20;;;2.20;;
18316;SDS011;9284;52.298;21.164;2022-09-16T18:16:36;6.20;;;2.35;;
18316;SDS011;9284;52.298;21.164;2022-09-16T18:19:04;5.13;;;2.30;;
18316;SDS011;9284;52.298;21.164;2022-09-16T18:21:33;4.43;;;2.00;;
18316;SDS011;9284;52.298;21.164;2022-09-16T18:24:04;3.03;;;2.40;;
18316;SDS011;9284;52.298;21.164;2022-09-16T18:26:36;4.88;;;2.28;;
18316;SDS011;9284;52.298;21.164;2022-09-16T18:29:06;3.35;;;2.25;;
18316;SDS011;9284;52.298;21.164;2022-09-16T18:31:38;6.78;;;2.60;;
18316;SDS011;9284;52.298;21.164;2022-09-16T18:34:09;5.70;;;2.50;;
18316;SDS011;9284;52.298;21.164;2022-09-16T18:36:38;4.65;;;2.60;;
18316;SDS011;9284;52.298;21.164;2022-09-16T18:39:09;4.75;;;2.50;;
18316;SDS011;9284;52.298;21.164;2022-09-16T18:41:39;4.32;;;2.38;;
18316;SDS011;9284;52.298;21.164;2022-09-16T18:44:12;8.98;;;2.78;;
18316;SDS011;9284;52.298;21.164;2022-09-16T18:46:44;3.65;;;2.30;;
18316;SDS011;9284;52.298;21.164;2022-09-16T18:49:14;6.28;;;2.50;;
18316;SDS011;9284;52.298;21.164;2022-09-16T18:51:45;5.45;;;2.67;;